createdAt,value
2018-11-02T00:00:12.606Z,66.22
2018-11-02T00:01:25.810Z,63.00
2018-11-02T00:02:30.016Z,63.80
2018-11-02T00:03:34.264Z,61.70
2018-11-02T00:04:38.401Z,57.58
2018-11-02T00:05:42.439Z,65.97
2018-11-02T00:06:46.605Z,66.33
2018-11-02T00:07:50.670Z,55.05
2018-11-02T00:08:54.990Z,56.73
2018-11-02T00:09:59.290Z,55.35
2018-11-02T00:11:03.347Z,62.27
2018-11-02T00:12:07.619Z,49.35
2018-11-02T00:13:11.750Z,57.85
2018-11-02T00:14:15.954Z,64.80
2018-11-02T00:15:20.013Z,66.40
2018-11-02T00:16:24.198Z,70.40
2018-11-02T00:17:28.317Z,60.25
2018-11-02T00:18:32.336Z,61.13
2018-11-02T00:19:36.440Z,62.23
2018-11-02T00:20:40.669Z,66.12
2018-11-02T00:21:44.838Z,53.92
2018-11-02T00:22:49.038Z,60.70
2018-11-02T00:23:58.476Z,61.25
2018-11-02T00:25:02.651Z,65.60
2018-11-02T00:26:07.058Z,60.33
2018-11-02T00:27:11.109Z,59.98
2018-11-02T00:28:15.199Z,55.65
2018-11-02T00:29:19.342Z,59.65
2018-11-02T00:30:23.442Z,60.98
2018-11-02T00:31:27.521Z,67.95
2018-11-02T00:32:31.762Z,59.93
2018-11-02T00:33:35.842Z,62.58
2018-11-02T00:34:40.063Z,56.65
2018-11-02T00:35:44.284Z,70.97
2018-11-02T00:36:48.422Z,60.73
2018-11-02T00:37:52.555Z,62.45
2018-11-02T00:38:56.570Z,59.45
2018-11-02T00:40:00.546Z,59.45
2018-11-02T00:41:04.585Z,52.17
2018-11-02T00:42:08.763Z,58.10
2018-11-02T00:43:12.803Z,58.68
2018-11-02T00:44:16.781Z,54.55
2018-11-02T00:45:20.794Z,53.65
2018-11-02T00:46:24.862Z,65.85
2018-11-02T00:47:28.917Z,66.72
2018-11-02T00:48:32.900Z,64.15
2018-11-02T00:49:37.050Z,62.30
2018-11-02T00:50:41.039Z,58.33
2018-11-02T00:51:44.986Z,62.58
2018-11-02T00:52:48.995Z,69.15
2018-11-02T00:53:53.010Z,54.42
2018-11-02T00:54:57.959Z,62.60
2018-11-02T00:56:02.188Z,56.58
2018-11-02T00:57:06.690Z,59.58
2018-11-02T00:58:10.706Z,52.62
2018-11-02T00:59:14.722Z,57.38
2018-11-02T01:00:18.780Z,61.68
2018-11-02T01:01:23.151Z,62.67
2018-11-02T01:02:27.154Z,64.58
2018-11-02T01:03:31.250Z,67.90
2018-11-02T01:04:35.292Z,64.50
2018-11-02T01:05:40.130Z,61.83
2018-11-02T01:06:44.133Z,57.08
2018-11-02T01:07:48.090Z,57.10
2018-11-02T01:08:52.111Z,61.20
2018-11-02T01:09:56.099Z,55.58
2018-11-02T01:11:00.185Z,62.55
2018-11-02T01:12:04.311Z,58.35
2018-11-02T01:13:08.377Z,61.23
2018-11-02T01:14:12.478Z,62.75
2018-11-02T01:15:16.523Z,64.00
2018-11-02T01:16:20.703Z,67.27
2018-11-02T01:17:24.797Z,68.90
2018-11-02T01:18:29.020Z,66.70
2018-11-02T01:19:34.665Z,62.13
2018-11-02T01:20:38.656Z,53.42
2018-11-02T01:21:42.859Z,59.25
2018-11-02T01:22:46.869Z,64.45
2018-11-02T01:23:50.874Z,65.92
2018-11-02T01:24:54.963Z,63.65
2018-11-02T01:25:58.962Z,52.95
2018-11-02T01:27:08.165Z,52.83
2018-11-02T01:28:12.290Z,54.45
2018-11-02T01:29:16.338Z,51.90
2018-11-02T01:30:20.554Z,56.35
2018-11-02T01:31:24.857Z,58.25
2018-11-02T01:32:28.847Z,58.73
2018-11-02T01:33:38.914Z,56.23
2018-11-02T01:34:42.895Z,57.75
2018-11-02T01:35:47.067Z,53.33
2018-11-02T01:36:51.059Z,63.48
2018-11-02T01:37:55.128Z,60.63
2018-11-02T01:38:59.207Z,62.05
2018-11-02T01:40:03.205Z,58.17
2018-11-02T01:41:07.435Z,48.28
2018-11-02T01:42:11.502Z,65.65
2018-11-02T01:43:15.555Z,53.25
2018-11-02T01:44:19.595Z,57.38
2018-11-02T01:45:23.585Z,57.65
2018-11-02T01:46:27.603Z,55.33
2018-11-02T01:47:31.622Z,51.90
2018-11-02T01:48:35.634Z,59.67
2018-11-02T01:49:39.739Z,56.60
2018-11-02T01:50:43.771Z,58.80
2018-11-02T01:51:47.830Z,51.20
2018-11-02T01:52:51.782Z,46.88
2018-11-02T01:53:55.742Z,53.87
2018-11-02T01:54:59.818Z,53.30
2018-11-02T01:56:03.848Z,52.13
2018-11-02T01:57:08.115Z,50.10
2018-11-02T01:58:12.156Z,53.98
2018-11-02T01:59:16.166Z,46.85
2018-11-02T02:00:20.184Z,49.63
2018-11-02T02:01:27.076Z,51.73
2018-11-02T02:02:31.146Z,44.55
2018-11-02T02:03:35.096Z,48.58
2018-11-02T02:04:39.070Z,43.63
2018-11-02T02:05:43.067Z,44.73
2018-11-02T02:06:53.748Z,45.15
2018-11-02T02:07:57.787Z,44.33
2018-11-02T02:09:01.779Z,48.92
2018-11-02T02:10:06.183Z,52.38
2018-11-02T02:11:10.167Z,43.35
2018-11-02T02:12:14.127Z,40.90
2018-11-02T02:13:18.192Z,39.63
2018-11-02T02:14:25.209Z,37.95
2018-11-02T02:15:29.215Z,46.05
2018-11-02T02:16:33.147Z,43.08
2018-11-02T02:17:37.171Z,39.90
2018-11-02T02:18:41.473Z,52.33
2018-11-02T02:19:45.490Z,48.25
2018-11-02T02:20:49.453Z,38.92
2018-11-02T02:21:53.416Z,45.83
2018-11-02T02:23:02.539Z,42.43
2018-11-02T02:24:06.778Z,34.43
2018-11-02T02:25:10.903Z,35.03
2018-11-02T02:26:15.036Z,37.83
2018-11-02T02:27:19.042Z,41.83
2018-11-02T02:28:28.967Z,41.45
2018-11-02T02:29:33.041Z,37.78
2018-11-02T02:30:37.242Z,36.33
2018-11-02T02:31:41.350Z,35.90
2018-11-02T02:32:45.390Z,34.40
2018-11-02T02:33:49.435Z,40.50
2018-11-02T02:34:53.475Z,40.67
2018-11-02T02:35:57.575Z,43.78
2018-11-02T02:37:01.534Z,41.70
2018-11-02T02:38:05.678Z,45.63
2018-11-02T02:39:10.672Z,43.50
2018-11-02T02:40:14.720Z,39.08
2018-11-02T02:41:18.742Z,35.65
2018-11-02T02:42:22.770Z,41.23
2018-11-02T02:43:26.743Z,38.88
2018-11-02T02:44:31.003Z,40.95
2018-11-02T02:45:35.247Z,35.08
2018-11-02T02:46:39.247Z,38.58
2018-11-02T02:47:43.275Z,38.53
2018-11-02T02:48:47.356Z,40.63
2018-11-02T02:49:51.434Z,45.10
2018-11-02T02:50:58.392Z,37.65
2018-11-02T02:52:02.349Z,33.20
2018-11-02T02:53:06.383Z,37.93
2018-11-02T02:54:10.458Z,39.08
2018-11-02T02:55:14.467Z,37.48
2018-11-02T02:56:18.787Z,46.08
2018-11-02T02:57:22.782Z,40.40
2018-11-02T02:58:26.795Z,38.85
2018-11-02T02:59:30.794Z,37.15
2018-11-02T03:00:34.776Z,39.48
2018-11-02T03:01:38.859Z,44.10
2018-11-02T03:02:43.391Z,39.10
2018-11-02T03:03:47.394Z,34.20
2018-11-02T03:04:51.547Z,37.48
2018-11-02T03:05:55.529Z,40.67
2018-11-02T03:07:04.774Z,34.23
2018-11-02T03:08:08.713Z,44.83
2018-11-02T03:09:12.701Z,36.30
2018-11-02T03:10:16.682Z,40.88
2018-11-02T03:11:20.863Z,35.60
2018-11-02T03:12:24.981Z,37.20
2018-11-02T03:13:28.950Z,50.75
2018-11-02T03:14:32.899Z,38.98
2018-11-02T03:15:36.814Z,39.15
2018-11-02T03:16:40.815Z,40.85
2018-11-02T03:17:44.823Z,38.60
2018-11-02T03:18:48.829Z,37.03
2018-11-02T03:19:52.900Z,42.03
2018-11-02T03:20:56.851Z,43.42
2018-11-02T03:22:00.908Z,45.75
2018-11-02T03:23:05.126Z,31.80
2018-11-02T03:24:09.099Z,40.00
2018-11-02T03:25:13.147Z,36.00
2018-11-02T03:26:17.243Z,42.60
2018-11-02T03:27:21.312Z,37.42
2018-11-02T03:28:25.312Z,40.63
2018-11-02T03:29:29.363Z,39.05
2018-11-02T03:30:33.359Z,33.83
2018-11-02T03:31:37.343Z,32.93
2018-11-02T03:32:41.588Z,39.23
2018-11-02T03:33:45.663Z,31.70
2018-11-02T03:34:49.667Z,33.85
2018-11-02T03:35:53.668Z,34.13
2018-11-02T03:36:57.646Z,39.45
2018-11-02T03:38:01.622Z,38.65
2018-11-02T03:39:07.950Z,37.58
2018-11-02T03:40:12.628Z,36.03
2018-11-02T03:41:16.657Z,41.70
2018-11-02T03:42:20.703Z,34.83
2018-11-02T03:43:24.663Z,37.90
2018-11-02T03:44:28.631Z,38.95
2018-11-02T03:45:32.582Z,35.58
2018-11-02T03:46:36.662Z,34.78
2018-11-02T03:47:40.663Z,36.53
2018-11-02T03:48:44.919Z,32.88
2018-11-02T03:49:48.987Z,37.78
2018-11-02T03:50:53.045Z,32.10
2018-11-02T03:51:57.295Z,44.88
2018-11-02T03:53:01.252Z,38.78
2018-11-02T03:54:05.635Z,35.70
2018-11-02T03:55:09.710Z,36.88
2018-11-02T03:56:13.696Z,37.67
2018-11-02T03:57:18.861Z,37.78
2018-11-02T03:58:22.854Z,38.25
2018-11-02T03:59:32.291Z,41.95
2018-11-02T04:00:36.320Z,43.15
2018-11-02T04:01:40.318Z,34.60
2018-11-02T04:02:44.273Z,42.48
2018-11-02T04:03:48.266Z,43.10
2018-11-02T04:04:52.339Z,40.60
2018-11-02T04:05:56.359Z,45.65
2018-11-02T04:07:00.304Z,35.98
2018-11-02T04:08:04.311Z,35.43
2018-11-02T04:09:08.713Z,32.48
2018-11-02T04:10:12.820Z,35.55
2018-11-02T04:11:16.804Z,36.48
2018-11-02T04:12:20.812Z,35.83
2018-11-02T04:13:24.786Z,29.50
2018-11-02T04:14:28.764Z,38.63
2018-11-02T04:15:32.809Z,41.68
2018-11-02T04:16:36.787Z,38.20
2018-11-02T04:17:40.770Z,31.82
2018-11-02T04:18:44.751Z,51.45
2018-11-02T04:19:48.741Z,41.53
2018-11-02T04:20:52.680Z,50.45
2018-11-02T04:21:56.763Z,49.58
2018-11-02T04:23:00.770Z,49.45
2018-11-02T04:24:04.790Z,54.03
2018-11-02T04:25:08.892Z,41.83
2018-11-02T04:26:12.926Z,43.70
2018-11-02T04:27:16.994Z,47.30
2018-11-02T04:28:21.023Z,44.33
2018-11-02T04:29:24.973Z,45.15
2018-11-02T04:30:29.302Z,42.93
2018-11-02T04:31:33.620Z,38.88
2018-11-02T04:32:37.731Z,46.40
2018-11-02T04:33:41.720Z,45.35
2018-11-02T04:34:45.695Z,44.42
2018-11-02T04:35:49.767Z,46.70
2018-11-02T04:36:53.709Z,43.15
2018-11-02T04:37:57.734Z,44.03
2018-11-02T04:39:02.023Z,46.23
2018-11-02T04:40:06.679Z,43.13
2018-11-02T04:41:10.941Z,46.53
2018-11-02T04:42:14.915Z,45.73
2018-11-02T04:43:18.955Z,35.20
2018-11-02T04:44:23.052Z,40.10
2018-11-02T04:45:32.237Z,34.60
2018-11-02T04:46:36.429Z,36.58
2018-11-02T04:47:40.390Z,38.45
2018-11-02T04:48:44.438Z,35.03
2018-11-02T04:49:48.455Z,36.93
2018-11-02T04:50:52.481Z,31.68
2018-11-02T04:52:01.691Z,43.90
2018-11-02T04:53:05.955Z,32.85
2018-11-02T04:54:09.942Z,36.28
2018-11-02T04:55:13.928Z,28.57
2018-11-02T04:56:17.854Z,30.50
2018-11-02T04:57:21.795Z,34.40
2018-11-02T04:58:25.766Z,38.98
2018-11-02T04:59:29.734Z,29.55
2018-11-02T05:00:33.724Z,37.28
2018-11-02T05:01:37.672Z,33.15
2018-11-02T05:02:41.653Z,34.75
2018-11-02T05:03:45.755Z,39.92
2018-11-02T05:04:49.789Z,36.35
2018-11-02T05:05:53.808Z,38.53
2018-11-02T05:06:57.777Z,32.00
2018-11-02T05:08:01.866Z,32.25
2018-11-02T05:09:07.967Z,36.65
2018-11-02T05:10:12.021Z,36.83
2018-11-02T05:11:16.333Z,38.17
2018-11-02T05:12:20.318Z,26.93
2018-11-02T05:13:24.278Z,34.08
2018-11-02T05:14:28.415Z,35.63
2018-11-02T05:15:32.626Z,33.83
2018-11-02T05:16:36.776Z,34.08
2018-11-02T05:17:40.799Z,35.80
2018-11-02T05:18:44.800Z,37.60
2018-11-02T05:19:48.828Z,37.48
2018-11-02T05:20:52.854Z,32.03
2018-11-02T05:21:57.041Z,30.52
2018-11-02T05:23:01.099Z,28.52
2018-11-02T05:24:05.277Z,27.30
2018-11-02T05:25:10.207Z,32.05
2018-11-02T05:26:14.257Z,32.63
2018-11-02T05:27:18.280Z,32.73
2018-11-02T05:28:22.354Z,36.50
2018-11-02T05:29:26.562Z,36.58
2018-11-02T05:30:30.476Z,35.70
2018-11-02T05:31:34.641Z,31.12
2018-11-02T05:32:38.603Z,34.40
2018-11-02T05:33:43.229Z,36.73
2018-11-02T05:34:47.184Z,30.30
2018-11-02T05:35:51.278Z,29.20
2018-11-02T05:36:55.544Z,34.60
2018-11-02T05:37:59.690Z,35.68
2018-11-02T05:39:04.684Z,35.78
2018-11-02T05:40:15.015Z,32.98
2018-11-02T05:41:19.147Z,29.42
2018-11-02T05:42:23.259Z,29.77
2018-11-02T05:43:27.261Z,34.90
2018-11-02T05:44:31.346Z,32.73
2018-11-02T05:45:35.444Z,28.32
2018-11-02T05:46:39.380Z,34.55
2018-11-02T05:47:43.607Z,37.85
2018-11-02T05:48:47.656Z,34.58
2018-11-02T05:49:51.719Z,27.27
2018-11-02T05:50:55.776Z,37.65
2018-11-02T05:51:59.796Z,27.65
2018-11-02T05:53:03.877Z,32.70
2018-11-02T05:54:07.961Z,32.78
2018-11-02T05:55:11.998Z,34.53
2018-11-02T05:56:16.096Z,28.17
2018-11-02T05:57:20.084Z,39.53
2018-11-02T05:58:24.510Z,29.45
2018-11-02T05:59:28.566Z,26.95
2018-11-02T06:00:32.622Z,27.17
2018-11-02T06:01:36.740Z,28.75
2018-11-02T06:02:41.008Z,26.73
2018-11-02T06:03:45.234Z,24.82
2018-11-02T06:04:49.242Z,25.88
2018-11-02T06:05:53.942Z,30.80
2018-11-02T06:06:58.058Z,29.07
2018-11-02T06:08:02.128Z,26.10
2018-11-02T06:09:08.160Z,26.17
2018-11-02T06:10:12.280Z,27.65
2018-11-02T06:11:16.397Z,28.70
2018-11-02T06:12:20.478Z,26.27
2018-11-02T06:13:24.586Z,33.65
2018-11-02T06:14:28.756Z,26.12
2018-11-02T06:15:32.839Z,28.05
2018-11-02T06:16:37.098Z,25.12
2018-11-02T06:17:41.155Z,31.25
2018-11-02T06:18:45.592Z,31.85
2018-11-02T06:19:49.765Z,27.93
2018-11-02T06:20:53.834Z,35.38
2018-11-02T06:21:57.820Z,31.90
2018-11-02T06:23:02.555Z,37.93
2018-11-02T06:24:07.000Z,33.58
2018-11-02T06:25:11.536Z,28.40
2018-11-02T06:26:15.581Z,28.30
2018-11-02T06:27:19.732Z,30.52
2018-11-02T06:28:23.720Z,30.35
2018-11-02T06:29:27.726Z,28.47
2018-11-02T06:30:31.935Z,25.12
2018-11-02T06:31:35.977Z,29.27
2018-11-02T06:32:40.202Z,26.15
2018-11-02T06:33:44.189Z,30.70
2018-11-02T06:34:48.216Z,27.93
2018-11-02T06:35:52.299Z,24.57
2018-11-02T06:36:56.564Z,33.70
2018-11-02T06:38:00.685Z,22.25
2018-11-02T06:39:06.872Z,26.77
2018-11-02T06:40:10.984Z,24.45
2018-11-02T06:41:15.149Z,23.73
2018-11-02T06:42:19.278Z,29.92
2018-11-02T06:43:23.373Z,29.57
2018-11-02T06:44:27.428Z,23.73
2018-11-02T06:45:31.536Z,25.82
2018-11-02T06:46:35.717Z,23.77
2018-11-02T06:47:39.835Z,28.20
2018-11-02T06:48:44.012Z,32.17
2018-11-02T06:49:48.110Z,22.30
2018-11-02T06:50:52.230Z,26.33
2018-11-02T06:51:56.338Z,23.52
2018-11-02T06:53:00.325Z,29.57
2018-11-02T06:54:04.572Z,21.00
2018-11-02T06:55:09.638Z,24.90
2018-11-02T06:56:18.909Z,19.92
2018-11-02T06:57:23.029Z,26.23
2018-11-02T06:58:27.255Z,24.30
2018-11-02T06:59:31.600Z,19.90
2018-11-02T07:00:35.671Z,23.80
2018-11-02T07:01:39.778Z,17.42
2018-11-02T07:02:43.898Z,21.90
2018-11-02T07:03:48.114Z,25.25
2018-11-02T07:04:52.154Z,25.48
2018-11-02T07:06:02.609Z,18.15
2018-11-02T07:07:06.843Z,22.22
2018-11-02T07:08:11.315Z,21.40
2018-11-02T07:09:15.376Z,24.60
2018-11-02T07:10:19.569Z,23.52
2018-11-02T07:11:23.764Z,21.07
2018-11-02T07:12:28.033Z,25.97
2018-11-02T07:13:32.338Z,21.35
2018-11-02T07:14:36.493Z,22.05
2018-11-02T07:15:40.688Z,19.25
2018-11-02T07:16:44.814Z,23.73
2018-11-02T07:17:51.823Z,23.15
2018-11-02T07:18:56.010Z,24.40
2018-11-02T07:20:00.170Z,24.85
2018-11-02T07:21:04.375Z,24.05
2018-11-02T07:22:08.650Z,27.52
2018-11-02T07:23:12.700Z,26.83
2018-11-02T07:24:16.834Z,17.93
2018-11-02T07:25:21.043Z,20.55
2018-11-02T07:26:25.050Z,20.92
2018-11-02T07:27:29.209Z,23.83
2018-11-02T07:28:33.355Z,25.63
2018-11-02T07:29:37.560Z,19.17
2018-11-02T07:30:47.584Z,20.65
2018-11-02T07:31:51.661Z,16.10
2018-11-02T07:32:55.920Z,20.40
2018-11-02T07:34:00.173Z,15.55
2018-11-02T07:35:04.400Z,18.87
2018-11-02T07:36:08.543Z,20.20
2018-11-02T07:37:12.826Z,21.12
2018-11-02T07:38:16.978Z,21.27
2018-11-02T07:40:31.770Z,16.80
2018-11-02T07:41:35.935Z,17.20
2018-11-02T07:42:40.312Z,17.23
2018-11-02T07:43:44.518Z,22.65
2018-11-02T07:44:48.731Z,20.35
2018-11-02T07:45:52.967Z,17.35
2018-11-02T07:46:57.675Z,16.67
2018-11-02T07:48:01.763Z,22.55
2018-11-02T07:49:06.206Z,16.55
2018-11-02T07:50:11.803Z,15.38
2018-11-02T07:51:16.004Z,17.00
2018-11-02T07:52:20.141Z,13.13
2018-11-02T07:53:24.342Z,18.48
2018-11-02T07:54:28.485Z,17.10
2018-11-02T07:55:32.680Z,14.68
2018-11-02T07:56:36.870Z,15.10
2018-11-02T07:57:41.105Z,13.95
2018-11-02T07:58:45.303Z,16.87
2018-11-02T07:59:49.574Z,16.40
2018-11-02T08:00:53.852Z,15.35
2018-11-02T08:01:58.212Z,16.15
2018-11-02T08:03:03.017Z,12.18
2018-11-02T08:04:07.361Z,13.68
2018-11-02T08:05:11.934Z,13.13
2018-11-02T08:06:16.102Z,12.98
2018-11-02T08:07:20.342Z,16.35
2018-11-02T08:08:24.533Z,12.47
2018-11-02T08:09:28.756Z,14.18
2018-11-02T08:10:32.898Z,17.70
2018-11-02T08:11:37.175Z,15.80
2018-11-02T08:12:41.550Z,17.23
2018-11-02T08:13:45.706Z,17.73
2018-11-02T08:14:49.916Z,14.45
2018-11-02T08:15:54.179Z,15.78
2018-11-02T08:16:58.501Z,15.63
2018-11-02T08:18:02.767Z,11.93
2018-11-02T08:19:07.090Z,11.18
2018-11-02T08:20:12.317Z,15.55
2018-11-02T08:21:16.471Z,16.00
2018-11-02T08:22:20.606Z,10.53
2018-11-02T08:23:25.133Z,24.67
2018-11-02T08:24:29.354Z,14.15
2018-11-02T08:25:33.516Z,14.80
2018-11-02T08:26:37.695Z,15.90
2018-11-02T08:27:42.153Z,14.87
2018-11-02T08:28:46.465Z,12.03
2018-11-02T08:29:50.616Z,11.03
2018-11-02T08:30:54.950Z,8.45
2018-11-02T08:31:59.235Z,12.70
2018-11-02T08:33:03.383Z,11.48
2018-11-02T08:34:07.626Z,16.73
2018-11-02T08:35:13.358Z,14.75
2018-11-02T08:36:17.555Z,11.73
2018-11-02T08:37:21.839Z,18.75
2018-11-02T08:38:26.020Z,11.63
2018-11-02T08:39:30.249Z,18.57
2018-11-02T08:40:39.561Z,18.35
2018-11-02T08:41:43.734Z,19.27
2018-11-02T08:42:47.963Z,15.80
2018-11-02T08:43:52.168Z,17.37
2018-11-02T08:44:56.358Z,20.08
2018-11-02T08:46:00.586Z,19.62
2018-11-02T08:47:04.885Z,14.43
2018-11-02T08:48:09.254Z,14.60
2018-11-02T08:49:13.354Z,19.15
2018-11-02T08:50:17.518Z,12.80
2018-11-02T08:51:21.676Z,12.50
2018-11-02T08:52:25.972Z,11.65
2018-11-02T08:53:30.122Z,16.48
2018-11-02T08:54:34.438Z,25.82
2018-11-02T08:55:38.627Z,15.90
2018-11-02T08:56:42.898Z,17.50
2018-11-02T08:57:47.092Z,24.27
2018-11-02T08:58:51.388Z,13.60
2018-11-02T08:59:55.495Z,15.50
2018-11-02T09:00:59.630Z,18.12
2018-11-02T09:02:03.813Z,15.03
2018-11-02T09:03:08.200Z,15.78
2018-11-02T09:04:12.346Z,17.55
2018-11-02T09:05:16.517Z,15.05
2018-11-02T09:06:20.916Z,24.25
2018-11-02T09:07:25.102Z,17.80
2018-11-02T09:08:29.498Z,27.07
2018-11-02T09:09:33.737Z,20.68
2018-11-02T09:10:37.978Z,45.90
2018-11-02T09:11:42.380Z,20.57
2018-11-02T09:12:46.660Z,17.48
2018-11-02T09:13:50.943Z,12.13
2018-11-02T09:14:55.178Z,11.22
2018-11-02T09:16:00.653Z,14.95
2018-11-02T09:17:05.622Z,12.80
2018-11-02T09:18:09.939Z,12.05
2018-11-02T09:19:14.349Z,13.13
2018-11-02T09:20:18.582Z,21.68
2018-11-02T09:21:22.903Z,17.17
2018-11-02T09:22:27.203Z,15.40
2018-11-02T09:23:31.501Z,14.95
2018-11-02T09:24:35.800Z,19.32
2018-11-02T09:25:40.177Z,14.95
2018-11-02T09:26:45.516Z,18.30
2018-11-02T09:27:49.837Z,16.40
2018-11-02T09:28:54.124Z,20.68
2018-11-02T09:29:58.242Z,16.07
2018-11-02T09:31:02.385Z,10.03
2018-11-02T09:32:06.795Z,25.08
2018-11-02T09:33:11.203Z,12.47
2018-11-02T09:34:15.338Z,11.75
2018-11-02T09:35:19.506Z,17.62
2018-11-02T09:36:23.583Z,9.98
2018-11-02T09:37:27.763Z,14.93
2018-11-02T09:38:31.998Z,18.62
2018-11-02T09:39:36.392Z,16.55
2018-11-02T09:40:40.592Z,10.05
2018-11-02T09:41:44.753Z,11.35
2018-11-02T09:42:49.000Z,15.45
2018-11-02T09:43:53.336Z,15.83
2018-11-02T09:44:57.497Z,22.52
2018-11-02T09:46:01.675Z,14.38
2018-11-02T09:47:05.965Z,36.80
2018-11-02T09:48:10.166Z,10.53
2018-11-02T09:49:14.498Z,12.25
2018-11-02T09:50:18.671Z,21.68
2018-11-02T09:51:22.939Z,25.10
2018-11-02T09:52:27.121Z,25.90
2018-11-02T09:53:31.448Z,26.55
2018-11-02T09:54:35.768Z,16.97
2018-11-02T09:55:40.076Z,25.45
2018-11-02T09:56:44.434Z,16.00
2018-11-02T09:57:48.708Z,25.08
2018-11-02T09:58:52.904Z,17.10
2018-11-02T09:59:57.969Z,15.03
2018-11-02T10:01:02.417Z,13.95
2018-11-02T10:02:06.517Z,14.83
2018-11-02T10:03:10.689Z,15.55
2018-11-02T10:04:14.959Z,21.20
2018-11-02T10:05:19.309Z,30.12
2018-11-02T10:06:23.631Z,36.98
2018-11-02T10:07:33.088Z,24.92
2018-11-02T10:08:37.504Z,24.37
2018-11-02T10:09:41.773Z,44.95
2018-11-02T10:10:46.098Z,29.18
2018-11-02T10:11:50.308Z,17.02
2018-11-02T10:12:54.646Z,24.45
2018-11-02T10:13:58.871Z,11.75
2018-11-02T10:15:03.542Z,21.05
2018-11-02T10:16:10.582Z,26.50
2018-11-02T10:17:14.902Z,34.48
2018-11-02T10:18:19.154Z,18.42
2018-11-02T10:19:23.894Z,18.62
2018-11-02T10:20:28.132Z,33.40
2018-11-02T10:21:32.450Z,24.57
2018-11-02T10:22:37.159Z,37.45
2018-11-02T10:23:41.418Z,36.65
2018-11-02T10:24:45.667Z,18.93
2018-11-02T10:25:49.914Z,22.62
2018-11-02T10:26:54.329Z,26.17
2018-11-02T10:27:59.081Z,14.98
2018-11-02T10:29:03.942Z,13.35
2018-11-02T10:30:10.501Z,15.45
2018-11-02T10:31:14.726Z,23.05
2018-11-02T10:32:23.990Z,17.65
2018-11-02T10:33:28.334Z,16.77
2018-11-02T10:34:32.751Z,19.55
2018-11-02T10:35:37.267Z,16.60
2018-11-02T10:36:41.795Z,15.38
2018-11-02T10:37:47.226Z,12.73
2018-11-02T10:38:51.626Z,24.87
2018-11-02T10:39:56.049Z,22.50
2018-11-02T10:41:00.749Z,26.65
2018-11-02T10:42:07.951Z,29.35
2018-11-02T10:43:14.603Z,20.88
2018-11-02T10:44:21.860Z,23.87
2018-11-02T10:45:29.143Z,23.47
2018-11-02T10:46:33.380Z,38.65
2018-11-02T10:47:38.005Z,18.40
2018-11-02T10:48:42.317Z,20.12
2018-11-02T10:49:46.543Z,17.57
2018-11-02T10:50:50.701Z,29.57
2018-11-02T10:51:54.931Z,23.38
2018-11-02T10:52:59.148Z,17.70
2018-11-02T10:54:03.408Z,24.12
2018-11-02T10:55:07.669Z,23.75
2018-11-02T10:56:11.931Z,10.78
2018-11-02T10:57:16.183Z,15.60
2018-11-02T10:58:20.507Z,22.52
2018-11-02T10:59:30.165Z,19.35
2018-11-02T11:00:39.584Z,25.20
2018-11-02T11:01:48.901Z,25.48
2018-11-02T11:02:53.154Z,12.47
2018-11-02T11:03:57.782Z,35.60
2018-11-02T11:05:02.133Z,34.60
2018-11-02T11:06:06.502Z,28.25
2018-11-02T11:07:10.993Z,55.65
2018-11-02T11:08:15.615Z,57.55
2018-11-02T11:09:20.466Z,17.23
2018-11-02T11:10:24.871Z,17.33
2018-11-02T11:11:29.267Z,29.40
2018-11-02T11:12:33.615Z,55.10
2018-11-02T11:13:37.980Z,89.77
2018-11-02T11:14:41.923Z,56.15
2018-11-02T11:15:46.293Z,44.50
2018-11-02T11:16:51.273Z,37.17
2018-11-02T11:17:55.487Z,38.17
2018-11-02T11:18:59.644Z,12.65
2018-11-02T11:20:03.918Z,24.55
2018-11-02T11:21:08.929Z,22.42
2018-11-02T11:22:13.131Z,16.62
2018-11-02T11:23:17.369Z,15.43
2018-11-02T11:24:21.562Z,14.70
2018-11-02T11:25:25.960Z,13.30
2018-11-02T11:26:30.293Z,12.60
2018-11-02T11:27:34.562Z,10.88
2018-11-02T11:28:38.782Z,12.80
2018-11-02T11:29:42.996Z,31.52
2018-11-02T11:30:47.258Z,11.22
2018-11-02T11:31:51.540Z,11.20
2018-11-02T11:32:55.826Z,12.15
2018-11-02T11:34:00.080Z,10.58
2018-11-02T11:35:04.371Z,16.97
2018-11-02T11:36:08.688Z,12.13
2018-11-02T11:37:12.889Z,10.05
2018-11-02T11:38:17.217Z,13.80
2018-11-02T11:39:21.496Z,18.10
2018-11-02T11:40:25.822Z,19.07
2018-11-02T11:41:30.117Z,13.40
2018-11-02T11:42:34.295Z,17.42
2018-11-02T11:43:38.564Z,15.90
2018-11-02T11:44:42.839Z,16.30
2018-11-02T11:45:53.346Z,16.17
2018-11-02T11:46:57.513Z,19.50
2018-11-02T11:48:01.881Z,20.47
2018-11-02T11:49:07.068Z,16.57
2018-11-02T11:50:17.400Z,13.08
2018-11-02T11:51:21.600Z,14.07
2018-11-02T11:52:26.671Z,14.43
2018-11-02T11:53:30.938Z,13.35
2018-11-02T11:54:35.145Z,15.53
2018-11-02T11:55:40.251Z,13.68
2018-11-02T11:56:44.525Z,14.40
2018-11-02T11:57:48.723Z,12.65
2018-11-02T11:58:52.972Z,12.73
2018-11-02T11:59:57.195Z,12.33
2018-11-02T12:01:01.432Z,16.45
2018-11-02T12:02:05.823Z,14.25
2018-11-02T12:03:10.059Z,11.03
2018-11-02T12:04:14.468Z,11.88
2018-11-02T12:05:20.929Z,11.83
2018-11-02T12:06:25.116Z,14.15
2018-11-02T12:07:29.366Z,14.23
2018-11-02T12:08:34.283Z,15.32
2018-11-02T12:09:39.951Z,10.72
2018-11-02T12:10:44.146Z,11.20
2018-11-02T12:11:48.540Z,16.97
2018-11-02T12:12:52.960Z,14.83
2018-11-02T12:13:57.184Z,15.20
2018-11-02T12:15:01.447Z,12.15
2018-11-02T12:16:06.054Z,19.57
2018-11-02T12:17:10.131Z,13.00
2018-11-02T12:18:14.304Z,13.95
2018-11-02T12:19:18.581Z,11.35
2018-11-02T12:20:26.479Z,12.73
2018-11-02T12:21:30.741Z,11.35
2018-11-02T12:22:34.935Z,14.43
2018-11-02T12:23:39.098Z,12.53
2018-11-02T12:24:43.312Z,13.55
2018-11-02T12:25:47.536Z,20.87
2018-11-02T12:26:57.513Z,18.75
2018-11-02T12:28:02.439Z,13.93
2018-11-02T12:29:06.744Z,12.73
2018-11-02T12:30:14.156Z,15.73
2018-11-02T12:31:18.399Z,9.83
2018-11-02T12:32:22.518Z,12.98
2018-11-02T12:33:26.718Z,13.53
2018-11-02T12:34:30.840Z,15.30
2018-11-02T12:35:35.018Z,16.60
2018-11-02T12:36:39.182Z,13.45
2018-11-02T12:37:48.541Z,14.07
2018-11-02T12:38:52.755Z,16.00
2018-11-02T12:39:57.072Z,17.62
2018-11-02T12:41:01.315Z,17.75
2018-11-02T12:42:05.619Z,20.27
2018-11-02T12:43:09.830Z,15.40
2018-11-02T12:44:13.955Z,16.62
2018-11-02T12:45:19.436Z,15.45
2018-11-02T12:46:23.560Z,16.15
2018-11-02T12:47:27.725Z,28.45
2018-11-02T12:48:32.165Z,29.00
2018-11-02T12:49:37.536Z,22.10
2018-11-02T12:50:41.446Z,19.00
2018-11-02T12:51:45.684Z,16.30
2018-11-02T12:52:51.162Z,20.92
2018-11-02T12:53:55.406Z,18.32
2018-11-02T12:54:59.581Z,14.93
2018-11-02T12:56:04.030Z,18.85
2018-11-02T12:57:08.289Z,13.75
2018-11-02T12:58:12.481Z,16.30
2018-11-02T12:59:16.726Z,24.63
2018-11-02T13:00:22.232Z,14.65
2018-11-02T13:01:26.355Z,19.17
2018-11-02T13:02:30.527Z,14.73
2018-11-02T13:03:34.737Z,18.77
2018-11-02T13:04:39.020Z,15.35
2018-11-02T13:05:43.262Z,20.15
2018-11-02T13:06:47.394Z,19.87
2018-11-02T13:07:51.539Z,21.97
2018-11-02T13:08:55.910Z,22.15
2018-11-02T13:10:00.638Z,28.17
2018-11-02T13:11:10.793Z,16.42
2018-11-02T13:12:14.993Z,19.15
2018-11-02T13:13:19.194Z,20.45
2018-11-02T13:14:23.484Z,24.10
2018-11-02T13:15:27.754Z,20.50
2018-11-02T13:16:31.998Z,25.12
2018-11-02T13:17:36.271Z,21.23
2018-11-02T13:18:40.511Z,19.00
2018-11-02T13:19:44.935Z,27.50
2018-11-02T13:20:49.174Z,21.80
2018-11-02T13:21:54.816Z,17.32
2018-11-02T13:22:59.124Z,18.00
2018-11-02T13:24:03.529Z,22.07
2018-11-02T13:25:09.746Z,18.20
2018-11-02T13:26:14.110Z,20.55
2018-11-02T13:27:18.469Z,20.95
2018-11-02T13:28:22.752Z,21.82
2018-11-02T13:29:28.019Z,23.00
2018-11-02T13:30:32.316Z,16.32
2018-11-02T13:31:36.736Z,15.72
2018-11-02T13:32:41.311Z,17.95
2018-11-02T13:33:45.528Z,18.17
2018-11-02T13:34:49.768Z,17.27
2018-11-02T13:35:54.106Z,19.07
2018-11-02T13:36:58.385Z,24.72
2018-11-02T13:38:02.677Z,17.62
2018-11-02T13:39:09.765Z,30.97
2018-11-02T13:40:15.208Z,21.75
2018-11-02T13:41:19.558Z,11.63
2018-11-02T13:42:23.787Z,19.75
2018-11-02T13:43:28.052Z,9.95
2018-11-02T13:44:32.195Z,18.07
2018-11-02T13:45:36.511Z,14.65
2018-11-02T13:46:40.775Z,13.98
2018-11-02T13:47:45.261Z,20.85
2018-11-02T13:48:49.477Z,20.27
2018-11-02T13:49:53.645Z,24.05
2018-11-02T13:50:57.889Z,20.15